LEMG Airport Information

Runway Information
Runway 12 Length 9022 ft width 148 ft
Elevation 52 ft Threshold 0 ft Heading 119
Runway 30 Length 9022 ft Width 148 ft
Elevation 31 ft Threshold 0 ft Heading 299
Runway 13 Length 10500 ft width 148 ft
Elevation 52 ft Threshold 0 ft Heading 133
Runway 31 Length 10500 ft Width 148 ft
Elevation 31 ft Threshold 0 ft Heading 313
Airport Frequencies
Type A/D Name APP Frequency 123.85 MHZ
Type ATIS Name ATIS Frequency 120.375 MHZ
Type CLD Name CLR DEL Frequency 121.875 MHZ
Type GND Name GND-W Frequency 121.7 MHZ
Type GND Name GND-E Frequency 121.95 MHZ
Type TWR Name TWR-W (RWY Frequency 118.15 MHZ
Type TWR Name TWR-E (RWY Frequency 118.775 MHZ
Airport Navaids
Type VOR-DME Name Martin Frequency 112600 KHZ
Type VOR-DME Name Malaga Frequency 112000 KHZ
Type VOR-DME Name Malaga Frequency 113550 KHZ
Type NDB Name Malaga Frequency 330 KHZ
Airport Weather Information & NOTAM
ADDS - METARS form results

(0717 UTC 15 December 2018)
Data provider http://aviationweather.gov/metar/data/
 
METAR text: LEMG 150700Z 29016KT CAVOK 12/05 Q1027 NOSIG
Conditions at: LEMG (MALAGA (CIV/MIL), ES) observed 0700 UTC 15 December 2018
Temperature: 12.0°C (54°F)
Dewpoint: 5.0°C (41°F) [RH = 62%]
Pressure (altimeter): 30.32 inches Hg (1027.0 mb)
Winds: from the WNW (290 degrees) at 18 MPH (16 knots; 8.2 m/s)
Visibility: 6 or more miles (10+ km)
Ceiling: ceiling and visibility are OK
Clouds: unknown
Weather: no significant weather observed at this time

METAR text: LEMG 150630Z 28016KT CAVOK 12/05 Q1027 NOSIG
Conditions at: LEMG (MALAGA (CIV/MIL), ES) observed 0630 UTC 15 December 2018
Temperature: 12.0°C (54°F)
Dewpoint: 5.0°C (41°F) [RH = 62%]
Pressure (altimeter): 30.32 inches Hg (1027.0 mb)
Winds: from the W (280 degrees) at 18 MPH (16 knots; 8.2 m/s)
Visibility: 6 or more miles (10+ km)
Ceiling: ceiling and visibility are OK
Clouds: unknown
Weather: no significant weather observed at this time

Forecast for: LEMG (MALAGA (CIV/MIL), ES)
Text: TAF LEMG 150500Z 1506/1606 29012KT CAVOK TX19/1514Z TN10/1606Z
Forecast period: 0600 UTC 15 December 2018 to 0600 UTC 16 December 2018
Forecast type: FROM: standard forecast or significant change
Winds: from the WNW (290 degrees) at 14 MPH (12 knots; 6.2 m/s)
Visibility: 6 or more miles 10+ km)
Ceiling: unknown
Clouds: missing
Weather: no significant weather forecast for this period
Text: PROB30
Forecast period: 0600 to 1300 UTC 15 December 2018
Forecast type: TEMPORARY: The following changes expected for less than half the time period
Winds: from the WNW (290 degrees) at 18 MPH (16 knots; 8.2 m/s)
gusting to 30 MPH (26 knots; 13.4 m/s)
Visibility: missing
Ceiling: unknown
Clouds: missing
Weather: no significant weather forecast for this period